Cement Trader — V2GQ4 — position and weather

sailwx.info

Track history (hours):
 
Tides and Currents Weather Stations Pressure Air Temp Water Temp Dewpoint Dewpoint Depression Visibility Wind Speed Wind Dir Waves Ship Positions

Cement Trader

Last reported at 2018-Feb-22 20:07 UTC. Time now 2018-Feb-23 06:47 UTC.
Position N 48°56' W 005°09'.

Length 106 m; draft 7 m.

Type: Cargo ship. MMSI: 304048000.

Date/timePositionNaut miles runAvg speedWind from/ knotsBaromVisibWave heightAir tempDewpointWater temp
2018-Feb-22 20:07N 48°56' W 005°09'211.6
2018-Feb-22 19:54N 48°55' W 005°12'511.5
2018-Feb-22 19:30N 48°53' W 005°19'611.6
2018-Feb-22 19:00N 48°50' W 005°26'611.6
2018-Feb-22 18:30N 48°46' W 005°34'  
2018-Feb-20 04:31N 39°32' W 009°51'0 9.0
2018-Feb-20 04:30N 39°32' W 009°51'12 9.1
2018-Feb-20 03:10N 39°20' W 009°51'3 9.2
2018-Feb-20 02:53N 39°17' W 009°51'4 9.0
2018-Feb-20 02:30N 39°14' W 009°51'4 8.9
2018-Feb-20 02:00N 39°09' W 009°51'4 8.9
2018-Feb-20 01:30N 39°05' W 009°51'5 9.1
2018-Feb-20 01:00N 39°00' W 009°51'5 9.1
2018-Feb-20 00:30N 38°56' W 009°51'4 8.9
2018-Feb-20 00:00N 38°51' W 009°51'5 9.0
2018-Feb-19 23:30N 38°47' W 009°51'4 8.8
2018-Feb-19 23:00N 38°42' W 009°50'4 8.8
2018-Feb-19 22:30N 38°39' W 009°48'4 8.7
2018-Feb-19 22:00N 38°35' W 009°45'4 8.1
2018-Feb-19 21:30N 38°33' W 009°40'4 8.4
2018-Feb-19 21:00N 38°30' W 009°36'4 8.6
2018-Feb-19 20:30N 38°28' W 009°31'5 9.4
2018-Feb-19 20:00N 38°26' W 009°26'5 9.5
2018-Feb-19 19:30N 38°24' W 009°20'5 9.3
2018-Feb-19 19:00N 38°22' W 009°15'5 9.1
2018-Feb-19 18:30N 38°22' W 009°09'510.5
2018-Feb-19 18:00N 38°24' W 009°03'5 9.5
2018-Feb-19 17:31N 38°27' W 008°59'3 6.8
2018-Feb-19 17:00N 38°30' W 008°56'0 0.1
2018-Feb-19 16:26N 38°30' W 008°56'0 0.0
2018-Feb-19 15:49N 38°30' W 008°56'0 0.0
2018-Feb-19 15:29N 38°30' W 008°56'0 0.0
2018-Feb-19 14:20N 38°30' W 008°56'0 0.0
2018-Feb-19 14:00N 38°30' W 008°56'0 0.0
2018-Feb-19 13:30N 38°30' W 008°56'0 0.0
2018-Feb-19 12:58N 38°30' W 008°56'0 0.0
2018-Feb-19 12:29N 38°30' W 008°56'0 0.0
2018-Feb-19 12:00N 38°30' W 008°56'0 0.0
2018-Feb-19 11:30N 38°30' W 008°56'0 0.0
2018-Feb-19 11:00N 38°30' W 008°56'0 0.0
2018-Feb-19 10:30N 38°30' W 008°56'0 0.0
2018-Feb-19 10:00N 38°30' W 008°56'0 0.0
2018-Feb-19 09:29N 38°30' W 008°56'0 0.0
2018-Feb-19 09:00N 38°30' W 008°56'0 0.0
2018-Feb-19 08:28N 38°30' W 008°56'0 0.0
2018-Feb-19 07:59N 38°30' W 008°56'0 0.0
2018-Feb-19 07:30N 38°30' W 008°56'0 0.0
2018-Feb-19 07:00N 38°30' W 008°56'0 0.0
2018-Feb-19 06:30N 38°30' W 008°56'0 0.0
2018-Feb-19 06:00N 38°30' W 008°56'0 0.0
2018-Feb-19 05:31N 38°30' W 008°56'0 0.0
2018-Feb-19 05:01N 38°30' W 008°56'0 0.0
2018-Feb-19 04:30N 38°30' W 008°56'0 0.0
2018-Feb-19 04:00N 38°30' W 008°56'0 0.0
2018-Feb-19 03:30N 38°30' W 008°56'0 0.0
2018-Feb-19 03:01N 38°30' W 008°56'0 0.0
2018-Feb-19 02:30N 38°30' W 008°56'0 0.0
2018-Feb-19 02:00N 38°30' W 008°56'0 0.0
2018-Feb-19 01:29N 38°30' W 008°56'0 0.0
2018-Feb-19 01:00N 38°30' W 008°56'0 0.0
2018-Feb-19 00:30N 38°30' W 008°56'0 0.0
2018-Feb-19 00:01N 38°30' W 008°56'0 0.0
2018-Feb-18 23:30N 38°30' W 008°56'0 0.0
2018-Feb-18 23:00N 38°30' W 008°56'0 0.0
2018-Feb-18 22:30N 38°30' W 008°56'0 0.0
2018-Feb-18 22:01N 38°30' W 008°56'0 0.0
2018-Feb-18 21:31N 38°30' W 008°56'0 0.0
2018-Feb-18 21:01N 38°30' W 008°56'0 0.0
2018-Feb-18 20:30N 38°30' W 008°56'0 0.0
2018-Feb-18 20:00N 38°30' W 008°56'0 0.0
2018-Feb-18 19:31N 38°30' W 008°56'0 0.0
2018-Feb-18 19:00N 38°30' W 008°56'0 0.0
2018-Feb-18 18:30N 38°30' W 008°56'0 0.0
2018-Feb-18 18:00N 38°30' W 008°56'0 0.0
2018-Feb-18 17:30N 38°30' W 008°56'0 0.0
2018-Feb-18 17:00N 38°30' W 008°56'0 0.0
2018-Feb-18 16:30N 38°30' W 008°56'0 0.0
2018-Feb-18 16:00N 38°30' W 008°56'0 0.0
2018-Feb-18 15:30N 38°30' W 008°56'0 0.0
2018-Feb-18 15:01N 38°30' W 008°56'0 0.0
2018-Feb-18 14:30N 38°30' W 008°56'0 0.0
2018-Feb-18 14:00N 38°30' W 008°56'0 0.0
2018-Feb-18 13:30N 38°30' W 008°56'0 0.0
2018-Feb-18 13:00N 38°30' W 008°56'0 0.0
2018-Feb-18 12:31N 38°30' W 008°56'0 0.0
2018-Feb-18 12:01N 38°30' W 008°56'0 0.0
2018-Feb-18 11:30N 38°30' W 008°56'0 0.0
2018-Feb-18 11:01N 38°30' W 008°56'0 0.0
2018-Feb-18 10:31N 38°30' W 008°56'0 0.0
2018-Feb-18 10:01N 38°30' W 008°56'0 0.0
2018-Feb-18 09:31N 38°30' W 008°56'0 0.0
2018-Feb-18 09:01N 38°30' W 008°56'0 0.0
2018-Feb-18 08:31N 38°30' W 008°56'0 0.0
2018-Feb-18 08:00N 38°30' W 008°56'0 0.0
2018-Feb-18 07:31N 38°30' W 008°56'0 0.0
2018-Feb-18 07:00N 38°30' W 008°56'0 0.0
2018-Feb-18 06:30N 38°30' W 008°56'0 0.0
2018-Feb-18 06:00N 38°30' W 008°56'0 0.0
2018-Feb-18 05:30N 38°30' W 008°56'0 0.0
2018-Feb-18 05:00N 38°30' W 008°56'0 0.0
2018-Feb-18 04:30N 38°30' W 008°56'0 0.0
2018-Feb-18 04:00N 38°30' W 008°56'0 0.0
2018-Feb-18 03:30N 38°30' W 008°56'0 0.0
2018-Feb-18 03:00N 38°30' W 008°56'0 0.0
2018-Feb-18 02:30N 38°30' W 008°56'0 0.0
2018-Feb-18 02:00N 38°30' W 008°56'0 0.0
2018-Feb-18 01:30N 38°30' W 008°56'0 0.0
2018-Feb-18 01:00N 38°30' W 008°56'0 0.0
2018-Feb-18 00:30N 38°30' W 008°56'0 0.0
2018-Feb-18 00:00N 38°30' W 008°56'0 0.0
2018-Feb-17 23:30N 38°30' W 008°56'0 0.0
2018-Feb-17 23:00N 38°30' W 008°56'0 0.0
2018-Feb-17 22:30N 38°30' W 008°56'0 0.3
2018-Feb-17 22:00N 38°29' W 008°56'3 6.7
2018-Feb-17 21:30N 38°27' W 008°59'5 9.7
2018-Feb-17 21:00N 38°24' W 009°03'5 9.3
2018-Feb-17 20:30N 38°23' W 009°09'612.0
2018-Feb-17 20:00N 38°23' W 009°17'612.3
2018-Feb-17 19:30N 38°25' W 009°24'612.3
2018-Feb-17 19:00N 38°27' W 009°32'612.1
2018-Feb-17 18:30N 38°29' W 009°39'612.4
2018-Feb-17 18:00N 38°31' W 009°47'612.1
2018-Feb-17 17:30N 38°33' W 009°54'612.3
2018-Feb-17 16:59N 38°35' W 010°02'612.3
2018-Feb-17 16:30N 38°40' W 010°05'612.8
2018-Feb-17 16:00N 38°47' W 010°05'712.7
2018-Feb-17 15:28N 38°54' W 010°05'612.4
2018-Feb-17 15:00N 38°59' W 010°05'612.1
2018-Feb-17 14:30N 39°05' W 010°05'612.4
2018-Feb-17 14:00N 39°12' W 010°05'  
2018-Feb-15 04:43N 49°13' W 004°48'6 7.9
2018-Feb-15 03:56N 49°17' W 004°41'6010.0
2018-Feb-14 21:55N 49°49' W 003°22'410.7
2018-Feb-14 21:30N 49°51' W 003°16'910.0
2018-Feb-14 20:38N 49°56' W 003°05'1 9.4
2018-Feb-14 20:30N 49°56' W 003°03'4 8.9
2018-Feb-14 20:01N 49°57' W 002°56'4 8.4
2018-Feb-14 19:30N 49°59' W 002°50'4 7.7
2018-Feb-14 18:59N 50°01' W 002°44'3 7.3
2018-Feb-14 18:30N 50°02' W 002°39'4 6.5
2018-Feb-14 17:55N 50°03' W 002°34'22 7.5
2018-Feb-14 14:57N 50°10' W 002°00'510.5
2018-Feb-14 14:30N 50°11' W 001°53'611.6
2018-Feb-14 14:00N 50°12' W 001°45'612.7
2018-Feb-14 13:30N 50°14' W 001°35'612.8
2018-Feb-14 13:00N 50°16' W 001°25'712.9
2018-Feb-14 12:29N 50°17' W 001°15'3310.7
2018-Feb-14 09:21N 50°26' W 000°25'3 9.9
2018-Feb-14 09:00N 50°27' W 000°19'5 9.7
2018-Feb-14 08:30N 50°28' W 000°12'5 9.7
2018-Feb-14 08:01N 50°30' W 000°05'5 9.7
2018-Feb-14 07:30N 50°31' E 000°03'5 9.4
2018-Feb-14 07:00N 50°33' E 000°09'5 9.7
2018-Feb-14 06:30N 50°34' E 000°17'510.3
2018-Feb-14 06:00N 50°36' E 000°24'611.1
2018-Feb-14 05:30N 50°38' E 000°32'611.6
2018-Feb-14 05:01N 50°41' E 000°40'612.0
2018-Feb-14 04:30N 50°45' E 000°48'611.9
2018-Feb-14 04:00N 50°48' E 000°55'611.9
2018-Feb-14 03:28N 50°52' E 001°03'611.5
2018-Feb-14 02:59N 50°56' E 001°10'510.5
2018-Feb-14 02:30N 50°59' E 001°16'510.0
2018-Feb-14 02:00N 51°02' E 001°23'5 9.4
2018-Feb-14 01:30N 51°05' E 001°28'4 8.9
2018-Feb-14 01:00N 51°08' E 001°34'4 8.4
2018-Feb-14 00:30N 51°10' E 001°39'4 8.4
2018-Feb-14 00:00N 51°13' E 001°44'4 8.6
2018-Feb-13 23:30N 51°17' E 001°48'4 8.5
2018-Feb-13 23:00N 51°20' E 001°53'4 8.6
2018-Feb-13 22:30N 51°23' E 001°57'4 8.3
2018-Feb-13 22:00N 51°24' E 002°04'611.0
2018-Feb-13 21:31N 51°22' E 002°11'510.6
2018-Feb-13 21:00N 51°21' E 002°20'611.1
2018-Feb-13 20:30N 51°23' E 002°28'611.5
2018-Feb-13 19:59N 51°23' E 002°38'611.9
2018-Feb-13 19:30N 51°22' E 002°47'612.1
2018-Feb-13 19:00N 51°23' E 002°56'611.8
2018-Feb-13 18:30N 51°24' E 003°06'613.0
2018-Feb-13 18:00N 51°25' E 003°16'713.1
2018-Feb-13 17:30N 51°25' E 003°26'612.6
2018-Feb-13 17:00N 51°26' E 003°36'5 9.7
2018-Feb-13 16:31N 51°23' E 003°43'510.6
2018-Feb-13 16:01N 51°20' E 003°49'0 0.0
2018-Feb-13 15:30N 51°20' E 003°49'0 0.4
2018-Feb-13 15:00N 51°20' E 003°49'2 3.6
2018-Feb-13 14:30N 51°18' E 003°50'2 3.1
2018-Feb-13 13:58N 51°16' E 003°51'0 0.0
2018-Feb-13 13:25N 51°16' E 003°51'0 0.0
2018-Feb-13 12:52N 51°16' E 003°51'0 0.0
2018-Feb-13 12:28N 51°16' E 003°51'0 0.0
2018-Feb-13 11:53N 51°16' E 003°51'0 0.0
2018-Feb-13 11:22N 51°16' E 003°51'0 0.0
2018-Feb-13 10:58N 51°16' E 003°51'0 0.0
2018-Feb-13 10:28N 51°16' E 003°51'0 0.0
2018-Feb-13 09:58N 51°16' E 003°51'0 0.0
2018-Feb-13 09:28N 51°16' E 003°51'0 0.0
2018-Feb-13 08:55N 51°16' E 003°51'0 0.0
2018-Feb-13 08:22N 51°16' E 003°51'0 0.0
2018-Feb-13 07:58N 51°16' E 003°51'0 0.0
2018-Feb-13 07:28N 51°16' E 003°51'0 0.0
2018-Feb-13 06:52N 51°16' E 003°51'0 0.0
2018-Feb-13 06:25N 51°16' E 003°51'0 0.0
2018-Feb-13 05:49N 51°16' E 003°51'0 0.0
2018-Feb-13 05:28N 51°16' E 003°51'0 0.0
2018-Feb-13 04:52N 51°16' E 003°51'0 0.0
2018-Feb-13 04:16N 51°16' E 003°51'0 0.0
2018-Feb-13 03:58N 51°16' E 003°51'0 0.0
2018-Feb-13 03:16N 51°16' E 003°51'0 0.0
2018-Feb-13 02:58N 51°16' E 003°51'0 0.0
2018-Feb-13 02:28N 51°16' E 003°51'0 0.0
2018-Feb-13 01:40N 51°16' E 003°51'0 0.0
2018-Feb-13 01:28N 51°16' E 003°51'0 0.0
2018-Feb-13 00:52N 51°16' E 003°51'0 0.0
2018-Feb-13 00:28N 51°16' E 003°51'0 0.0
2018-Feb-12 23:58N 51°16' E 003°51'0 0.0
2018-Feb-12 23:28N 51°16' E 003°51'0 0.0
2018-Feb-12 22:46N 51°16' E 003°51'0 0.0
2018-Feb-12 22:28N 51°16' E 003°51'0 0.0
2018-Feb-12 21:52N 51°16' E 003°51'0 0.0
2018-Feb-12 21:16N 51°16' E 003°51'0 0.0
2018-Feb-12 20:58N 51°16' E 003°51'0 0.0
2018-Feb-12 20:28N 51°16' E 003°51'  
Track history (hours):
 
Tides and Currents Weather Stations Pressure Air Temp Water Temp Dewpoint Dewpoint Depression Visibility Wind Speed Wind Dir Waves Ship Positions

Cement Trader

Last reported at 2018-Feb-22 20:07 UTC. Time now 2018-Feb-23 06:47 UTC.
Position N 48°56' W 005°09'.

Length 106 m; draft 7 m.

Type: Cargo ship. MMSI: 304048000.

Date/timePositionNaut miles runAvg speedWind from/ knotsBaromVisibWave heightAir tempDewpointWater temp
2018-Feb-22 20:07N 48°56' W 005°09'211.6
2018-Feb-22 19:54N 48°55' W 005°12'511.5
2018-Feb-22 19:30N 48°53' W 005°19'611.6
2018-Feb-22 19:00N 48°50' W 005°26'611.6
2018-Feb-22 18:30N 48°46' W 005°34'  
2018-Feb-20 04:31N 39°32' W 009°51'0 9.0
2018-Feb-20 04:30N 39°32' W 009°51'12 9.1
2018-Feb-20 03:10N 39°20' W 009°51'3 9.2
2018-Feb-20 02:53N 39°17' W 009°51'4 9.0
2018-Feb-20 02:30N 39°14' W 009°51'4 8.9
2018-Feb-20 02:00N 39°09' W 009°51'4 8.9
2018-Feb-20 01:30N 39°05' W 009°51'5 9.1
2018-Feb-20 01:00N 39°00' W 009°51'5 9.1
2018-Feb-20 00:30N 38°56' W 009°51'4 8.9
2018-Feb-20 00:00N 38°51' W 009°51'5 9.0
2018-Feb-19 23:30N 38°47' W 009°51'4 8.8
2018-Feb-19 23:00N 38°42' W 009°50'4 8.8
2018-Feb-19 22:30N 38°39' W 009°48'4 8.7
2018-Feb-19 22:00N 38°35' W 009°45'4 8.1
2018-Feb-19 21:30N 38°33' W 009°40'4 8.4
2018-Feb-19 21:00N 38°30' W 009°36'4 8.6
2018-Feb-19 20:30N 38°28' W 009°31'5 9.4
2018-Feb-19 20:00N 38°26' W 009°26'5 9.5
2018-Feb-19 19:30N 38°24' W 009°20'5 9.3
2018-Feb-19 19:00N 38°22' W 009°15'5 9.1
2018-Feb-19 18:30N 38°22' W 009°09'510.5
2018-Feb-19 18:00N 38°24' W 009°03'5 9.5
2018-Feb-19 17:31N 38°27' W 008°59'3 6.8
2018-Feb-19 17:00N 38°30' W 008°56'0 0.1
2018-Feb-19 16:26N 38°30' W 008°56'0 0.0
2018-Feb-19 15:49N 38°30' W 008°56'0 0.0
2018-Feb-19 15:29N 38°30' W 008°56'0 0.0
2018-Feb-19 14:20N 38°30' W 008°56'0 0.0
2018-Feb-19 14:00N 38°30' W 008°56'0 0.0
2018-Feb-19 13:30N 38°30' W 008°56'0 0.0
2018-Feb-19 12:58N 38°30' W 008°56'0 0.0
2018-Feb-19 12:29N 38°30' W 008°56'0 0.0
2018-Feb-19 12:00N 38°30' W 008°56'0 0.0
2018-Feb-19 11:30N 38°30' W 008°56'0 0.0
2018-Feb-19 11:00N 38°30' W 008°56'0 0.0
2018-Feb-19 10:30N 38°30' W 008°56'0 0.0
2018-Feb-19 10:00N 38°30' W 008°56'0 0.0
2018-Feb-19 09:29N 38°30' W 008°56'0 0.0
2018-Feb-19 09:00N 38°30' W 008°56'0 0.0
2018-Feb-19 08:28N 38°30' W 008°56'0 0.0
2018-Feb-19 07:59N 38°30' W 008°56'0 0.0
2018-Feb-19 07:30N 38°30' W 008°56'0 0.0
2018-Feb-19 07:00N 38°30' W 008°56'0 0.0
2018-Feb-19 06:30N 38°30' W 008°56'0 0.0
2018-Feb-19 06:00N 38°30' W 008°56'0 0.0
2018-Feb-19 05:31N 38°30' W 008°56'0 0.0
2018-Feb-19 05:01N 38°30' W 008°56'0 0.0
2018-Feb-19 04:30N 38°30' W 008°56'0 0.0
2018-Feb-19 04:00N 38°30' W 008°56'0 0.0
2018-Feb-19 03:30N 38°30' W 008°56'0 0.0
2018-Feb-19 03:01N 38°30' W 008°56'0 0.0
2018-Feb-19 02:30N 38°30' W 008°56'0 0.0
2018-Feb-19 02:00N 38°30' W 008°56'0 0.0
2018-Feb-19 01:29N 38°30' W 008°56'0 0.0
2018-Feb-19 01:00N 38°30' W 008°56'0 0.0
2018-Feb-19 00:30N 38°30' W 008°56'0 0.0
2018-Feb-19 00:01N 38°30' W 008°56'0 0.0
2018-Feb-18 23:30N 38°30' W 008°56'0 0.0
2018-Feb-18 23:00N 38°30' W 008°56'0 0.0
2018-Feb-18 22:30N 38°30' W 008°56'0 0.0
2018-Feb-18 22:01N 38°30' W 008°56'0 0.0
2018-Feb-18 21:31N 38°30' W 008°56'0 0.0
2018-Feb-18 21:01N 38°30' W 008°56'0 0.0
2018-Feb-18 20:30N 38°30' W 008°56'0 0.0
2018-Feb-18 20:00N 38°30' W 008°56'0 0.0
2018-Feb-18 19:31N 38°30' W 008°56'0 0.0
2018-Feb-18 19:00N 38°30' W 008°56'0 0.0
2018-Feb-18 18:30N 38°30' W 008°56'0 0.0
2018-Feb-18 18:00N 38°30' W 008°56'0 0.0
2018-Feb-18 17:30N 38°30' W 008°56'0 0.0
2018-Feb-18 17:00N 38°30' W 008°56'0 0.0
2018-Feb-18 16:30N 38°30' W 008°56'0 0.0
2018-Feb-18 16:00N 38°30' W 008°56'0 0.0
2018-Feb-18 15:30N 38°30' W 008°56'0 0.0
2018-Feb-18 15:01N 38°30' W 008°56'0 0.0
2018-Feb-18 14:30N 38°30' W 008°56'0 0.0
2018-Feb-18 14:00N 38°30' W 008°56'0 0.0
2018-Feb-18 13:30N 38°30' W 008°56'0 0.0
2018-Feb-18 13:00N 38°30' W 008°56'0 0.0
2018-Feb-18 12:31N 38°30' W 008°56'0 0.0
2018-Feb-18 12:01N 38°30' W 008°56'0 0.0
2018-Feb-18 11:30N 38°30' W 008°56'0 0.0
2018-Feb-18 11:01N 38°30' W 008°56'0 0.0
2018-Feb-18 10:31N 38°30' W 008°56'0 0.0
2018-Feb-18 10:01N 38°30' W 008°56'0 0.0
2018-Feb-18 09:31N 38°30' W 008°56'0 0.0
2018-Feb-18 09:01N 38°30' W 008°56'0 0.0
2018-Feb-18 08:31N 38°30' W 008°56'0 0.0
2018-Feb-18 08:00N 38°30' W 008°56'0 0.0
2018-Feb-18 07:31N 38°30' W 008°56'0 0.0
2018-Feb-18 07:00N 38°30' W 008°56'0 0.0
2018-Feb-18 06:30N 38°30' W 008°56'0 0.0
2018-Feb-18 06:00N 38°30' W 008°56'0 0.0
2018-Feb-18 05:30N 38°30' W 008°56'0 0.0
2018-Feb-18 05:00N 38°30' W 008°56'0 0.0
2018-Feb-18 04:30N 38°30' W 008°56'0 0.0
2018-Feb-18 04:00N 38°30' W 008°56'0 0.0
2018-Feb-18 03:30N 38°30' W 008°56'0 0.0
2018-Feb-18 03:00N 38°30' W 008°56'0 0.0
2018-Feb-18 02:30N 38°30' W 008°56'0 0.0
2018-Feb-18 02:00N 38°30' W 008°56'0 0.0
2018-Feb-18 01:30N 38°30' W 008°56'0 0.0
2018-Feb-18 01:00N 38°30' W 008°56'0 0.0
2018-Feb-18 00:30N 38°30' W 008°56'0 0.0
2018-Feb-18 00:00N 38°30' W 008°56'0 0.0
2018-Feb-17 23:30N 38°30' W 008°56'0 0.0
2018-Feb-17 23:00N 38°30' W 008°56'0 0.0
2018-Feb-17 22:30N 38°30' W 008°56'0 0.3
2018-Feb-17 22:00N 38°29' W 008°56'3 6.7
2018-Feb-17 21:30N 38°27' W 008°59'5 9.7
2018-Feb-17 21:00N 38°24' W 009°03'5 9.3
2018-Feb-17 20:30N 38°23' W 009°09'612.0
2018-Feb-17 20:00N 38°23' W 009°17'612.3
2018-Feb-17 19:30N 38°25' W 009°24'612.3
2018-Feb-17 19:00N 38°27' W 009°32'612.1
2018-Feb-17 18:30N 38°29' W 009°39'612.4
2018-Feb-17 18:00N 38°31' W 009°47'612.1
2018-Feb-17 17:30N 38°33' W 009°54'612.3
2018-Feb-17 16:59N 38°35' W 010°02'612.3
2018-Feb-17 16:30N 38°40' W 010°05'612.8
2018-Feb-17 16:00N 38°47' W 010°05'712.7
2018-Feb-17 15:28N 38°54' W 010°05'612.4
2018-Feb-17 15:00N 38°59' W 010°05'612.1
2018-Feb-17 14:30N 39°05' W 010°05'612.4
2018-Feb-17 14:00N 39°12' W 010°05'  
2018-Feb-15 04:43N 49°13' W 004°48'6 7.9
2018-Feb-15 03:56N 49°17' W 004°41'6010.0
2018-Feb-14 21:55N 49°49' W 003°22'410.7
2018-Feb-14 21:30N 49°51' W 003°16'910.0
2018-Feb-14 20:38N 49°56' W 003°05'1 9.4
2018-Feb-14 20:30N 49°56' W 003°03'4 8.9
2018-Feb-14 20:01N 49°57' W 002°56'4 8.4
2018-Feb-14 19:30N 49°59' W 002°50'4 7.7
2018-Feb-14 18:59N 50°01' W 002°44'3 7.3
2018-Feb-14 18:30N 50°02' W 002°39'4 6.5
2018-Feb-14 17:55N 50°03' W 002°34'22 7.5
2018-Feb-14 14:57N 50°10' W 002°00'510.5
2018-Feb-14 14:30N 50°11' W 001°53'611.6
2018-Feb-14 14:00N 50°12' W 001°45'612.7
2018-Feb-14 13:30N 50°14' W 001°35'612.8
2018-Feb-14 13:00N 50°16' W 001°25'712.9
2018-Feb-14 12:29N 50°17' W 001°15'3310.7
2018-Feb-14 09:21N 50°26' W 000°25'3 9.9
2018-Feb-14 09:00N 50°27' W 000°19'5 9.7
2018-Feb-14 08:30N 50°28' W 000°12'5 9.7
2018-Feb-14 08:01N 50°30' W 000°05'5 9.7
2018-Feb-14 07:30N 50°31' E 000°03'5 9.4
2018-Feb-14 07:00N 50°33' E 000°09'5 9.7
2018-Feb-14 06:30N 50°34' E 000°17'510.3
2018-Feb-14 06:00N 50°36' E 000°24'611.1
2018-Feb-14 05:30N 50°38' E 000°32'611.6
2018-Feb-14 05:01N 50°41' E 000°40'612.0
2018-Feb-14 04:30N 50°45' E 000°48'611.9
2018-Feb-14 04:00N 50°48' E 000°55'611.9
2018-Feb-14 03:28N 50°52' E 001°03'611.5
2018-Feb-14 02:59N 50°56' E 001°10'510.5
2018-Feb-14 02:30N 50°59' E 001°16'510.0
2018-Feb-14 02:00N 51°02' E 001°23'5 9.4
2018-Feb-14 01:30N 51°05' E 001°28'4 8.9
2018-Feb-14 01:00N 51°08' E 001°34'4 8.4
2018-Feb-14 00:30N 51°10' E 001°39'4 8.4
2018-Feb-14 00:00N 51°13' E 001°44'4 8.6
2018-Feb-13 23:30N 51°17' E 001°48'4 8.5
2018-Feb-13 23:00N 51°20' E 001°53'4 8.6
2018-Feb-13 22:30N 51°23' E 001°57'4 8.3
2018-Feb-13 22:00N 51°24' E 002°04'611.0
2018-Feb-13 21:31N 51°22' E 002°11'510.6
2018-Feb-13 21:00N 51°21' E 002°20'611.1
2018-Feb-13 20:30N 51°23' E 002°28'611.5
2018-Feb-13 19:59N 51°23' E 002°38'611.9
2018-Feb-13 19:30N 51°22' E 002°47'612.1
2018-Feb-13 19:00N 51°23' E 002°56'611.8
2018-Feb-13 18:30N 51°24' E 003°06'613.0
2018-Feb-13 18:00N 51°25' E 003°16'713.1
2018-Feb-13 17:30N 51°25' E 003°26'612.6
2018-Feb-13 17:00N 51°26' E 003°36'5 9.7
2018-Feb-13 16:31N 51°23' E 003°43'510.6
2018-Feb-13 16:01N 51°20' E 003°49'0 0.0
2018-Feb-13 15:30N 51°20' E 003°49'0 0.4
2018-Feb-13 15:00N 51°20' E 003°49'2 3.6
2018-Feb-13 14:30N 51°18' E 003°50'2 3.1
2018-Feb-13 13:58N 51°16' E 003°51'0 0.0
2018-Feb-13 13:25N 51°16' E 003°51'0 0.0
2018-Feb-13 12:52N 51°16' E 003°51'0 0.0
2018-Feb-13 12:28N 51°16' E 003°51'0 0.0
2018-Feb-13 11:53N 51°16' E 003°51'0 0.0
2018-Feb-13 11:22N 51°16' E 003°51'0 0.0
2018-Feb-13 10:58N 51°16' E 003°51'0 0.0
2018-Feb-13 10:28N 51°16' E 003°51'0 0.0
2018-Feb-13 09:58N 51°16' E 003°51'0 0.0
2018-Feb-13 09:28N 51°16' E 003°51'0 0.0
2018-Feb-13 08:55N 51°16' E 003°51'0 0.0
2018-Feb-13 08:22N 51°16' E 003°51'0 0.0
2018-Feb-13 07:58N 51°16' E 003°51'0 0.0
2018-Feb-13 07:28N 51°16' E 003°51'0 0.0
2018-Feb-13 06:52N 51°16' E 003°51'0 0.0
2018-Feb-13 06:25N 51°16' E 003°51'0 0.0
2018-Feb-13 05:49N 51°16' E 003°51'0 0.0
2018-Feb-13 05:28N 51°16' E 003°51'0 0.0
2018-Feb-13 04:52N 51°16' E 003°51'0 0.0
2018-Feb-13 04:16N 51°16' E 003°51'0 0.0
2018-Feb-13 03:58N 51°16' E 003°51'0 0.0
2018-Feb-13 03:16N 51°16' E 003°51'0 0.0
2018-Feb-13 02:58N 51°16' E 003°51'0 0.0
2018-Feb-13 02:28N 51°16' E 003°51'0 0.0
2018-Feb-13 01:40N 51°16' E 003°51'0 0.0
2018-Feb-13 01:28N 51°16' E 003°51'0 0.0
2018-Feb-13 00:52N 51°16' E 003°51'0 0.0
2018-Feb-13 00:28N 51°16' E 003°51'0 0.0
2018-Feb-12 23:58N 51°16' E 003°51'0 0.0
2018-Feb-12 23:28N 51°16' E 003°51'0 0.0
2018-Feb-12 22:46N 51°16' E 003°51'0 0.0
2018-Feb-12 22:28N 51°16' E 003°51'0 0.0
2018-Feb-12 21:52N 51°16' E 003°51'0 0.0
2018-Feb-12 21:16N 51°16' E 003°51'0 0.0
2018-Feb-12 20:58N 51°16' E 003°51'0 0.0
2018-Feb-12 20:28N 51°16' E 003°51'  

Dump ship's entire track history